Onion Creek, California Weather observations

Data are for observation ending at time listed.
 Day   Time    Ave.   Ave.  Ave.  Vector   Max.   Stn.    Total    Solar   Ave.   Snow 
  of    of     Air    Rel.  Wind   Wind    Wind   Baro.  Precip.   Rad.    Soil   Depth
Year   Day     Temp.  Hum.  Speed  Dir.    Gust   Pres.                    Temp.       
2016   (PST)    F      %     mph   deg.    mph     mb.     in.     W/m2     F      in. 
---------------------------------------------------------------------------------------  
 120    0:00   32.8    90    1.1    38      2.0   828.7   43.60       0    39.9   999.0
 120    0:10   32.6    90    1.3    41      2.3   828.7   43.60       0    39.7   999.0
 120    0:20   32.2    91    1.4    38      1.8   828.6   43.60       0    39.6   999.0
 120    0:30   31.9    91    1.7    36      2.2   828.6   43.60       0    39.5   999.0
 120    0:40   32.1    92    1.7    34      2.6   828.5   43.64       0    39.3   999.0
 120    0:50   32.2    92    1.8    45      3.1   828.5   43.60       0    39.2   999.0
 120    1:00   32.3    92    1.7    25      3.0   828.5   43.64       0    39.0   999.0
 120    1:10   32.3    91    1.0    28      2.1   828.4   43.60       0    38.9   999.0
 120    1:20   32.3    91    0.7    52      1.6   828.3   43.64       0    38.8   999.0
 120    1:30   32.1    91    1.0    27      1.5   828.2   43.60       0    38.7   999.0
 120    1:40   32.1    91    1.1    28      2.2   828.0   43.64       0    38.6   999.0
 120    1:50   32.2    92    0.9    46      1.8   828.0   43.60       0    38.5   999.0
 120    2:00   32.4    91    1.7    32      3.1   828.1   43.64       0    38.4   999.0
 120    2:10   32.5    91    1.3    34      2.4   828.1   43.64       0    38.3   999.0
 120    2:20   32.6    91    2.0    39      2.9   828.1   43.64       0    38.2   999.0
 120    2:30   32.9    90    1.4    32      2.3   828.2   43.64       0    38.1   999.0
 120    2:40   33.0    90    1.0    41      1.8   828.4   43.60       0    38.0   999.0
 120    2:50   32.7    90    1.3    38      2.4   828.4   43.64       0    37.9   999.0
 120    3:00   32.6    91    1.2    48      1.9   828.4   43.64       0    37.8   999.0
 120    3:10   32.8    90    1.2    41      2.0   828.3   43.64       0    37.7   999.0
 120    3:20   32.6    90    1.0    43      1.9   828.3   43.64       0    37.6   999.0
 120    3:30   32.3    90    1.9    40      2.5   828.2   43.60       0    37.5   999.0
 120    3:40   32.2    91    2.2    36      2.8   828.3   43.60       0    37.5   999.0
 120    3:50   32.3    91    1.6    33      2.4   828.4   43.60       0    37.4   999.0
 120    4:00   32.0    91    0.5    29      1.7   828.3   43.64       0    37.3   999.0
 120    4:10   31.7    91    1.1    42      1.9   828.4   43.60       0    37.2   999.0
 120    4:20   31.7    92    1.6    36      2.6   828.5   43.60       0    37.1   999.0
 120    4:30   31.9    92    1.9    38      2.7   828.5   43.60       0    37.1   999.0
 120    4:40   31.8    92    1.5    35      2.4   828.4   43.64       0    37.0   999.0
 120    4:50   31.8    92    1.4    40      2.5   828.3   43.60       0    36.9   999.0
 120    5:00   31.9    92    1.2    51      1.8   828.3   43.64       1    36.8   999.0
 120    5:10   32.1    92    1.3    38      2.3   828.3   43.64       4    36.8   999.0
 120    5:20   32.1    92    1.4    39      2.2   828.3   43.64      13    36.7   999.0
 120    5:30   32.3    92    1.4    41      2.4   828.4   43.64      21    36.6   999.0
 120    5:40   32.7    92    1.6    41      2.9   828.5   43.60      30    36.6   999.0
 120    5:50   33.0    92    1.0    31      2.3   828.6   43.64      35    36.5   999.0
 120    6:00   33.2    92    1.5    34      2.2   828.6   43.60      40    36.4   999.0
 120    6:10   33.5    91    1.7    41      2.5   828.6   43.64      57    36.4   999.0
 120    6:20   34.1    91    1.5    42      2.5   828.5   43.64      82    36.4   999.0
 120    6:30   34.9    89    1.0    35      2.0   828.4   43.64     110    36.3   999.0
 120    6:40   35.8    89    1.2    53      2.0   828.7   43.64     134    36.3   999.0
 120    6:50   37.0    87    0.8    45      1.6   828.7   43.64     143    36.2   999.0
 120    7:00   38.2    86    0.4    45      0.9   828.8   43.64     220    36.2   999.0
 120    7:10   40.2    82    0.3    68      1.1   829.0   43.64     293    36.2   999.0
 120    7:20   42.0    76    0.7   126      2.9   829.0   43.64     231    36.2   999.0
 120    7:30   43.3    69    0.9   132      3.3   829.0   43.67     203    36.2   999.0
 120    7:40   43.9    67    1.1   142      4.3   829.0   43.67     241    36.3   999.0
 120    7:50   44.6    62    1.3   208      3.9   829.1   43.64     246    36.4   999.0
 120    8:00   44.6    64    1.1   168      3.2   829.2   43.64     197    36.4   999.0
 120    8:10   44.8    63    1.5   150      5.3   829.2   43.64     207    36.6   999.0
 120    8:20   44.9    62    1.5   195      7.9   829.2   43.64     204    36.7   999.0
 120    8:30   45.5    60    1.7   257      5.1   829.2   43.64     259    36.9   999.0
 120    8:40   46.2    57    1.3   130      5.3   829.2   43.64     407    37.0   999.0
 120    8:50   46.8    56    1.9   188      4.8   829.2   43.64     631    37.2   999.0
 120    9:00   47.8    52    2.0   157      5.0   829.2   43.64     681    37.3   999.0
 120    9:10   48.7    50    2.2   256      6.2   829.2   43.64     712    37.5   999.0
 120    9:20   48.8    49    2.5   262      5.8   829.2   43.60     743    37.7   999.0
 120    9:30   49.3    49    2.3   165      6.5   829.2   43.64     871    37.9   999.0
 120    9:40   50.2    48    1.5   220      7.0   829.2   43.64     897    38.1   999.0
 120    9:50   50.6    47    2.7   185      6.7   829.1   43.64     870    38.4   999.0
 120   10:00   50.8    46    2.5   272     12.4   829.1   43.64     860    38.8   999.0
 120   10:10   50.1    46    2.9   239      9.9   829.1   43.64     864    39.1   999.0
 120   10:20   51.4    45    1.6   260      6.0   829.1   43.60     960    39.5   999.0
 120   10:30   51.4    43    3.5   219      7.1   829.0   43.64     981    40.0   999.0
 120   10:40   51.5    40    3.0   254      9.9   829.0   43.60     980    40.5   999.0
 120   10:50   52.0    42    2.9   248      9.9   828.9   43.60     990    41.0   999.0
 120   11:00   52.3    41    4.4   266     13.2   828.9   43.64    1013    41.5   999.0
 120   11:10   52.3    36    2.9   248      8.9   828.9   43.64    1017    42.1   999.0
 120   11:20   52.1    35    4.0   261     15.4   828.7   43.60    1050    42.7   999.0
 120   11:30   52.8    36    3.6   264     13.2   828.5   43.64    1051    43.2   999.0
 120   11:40   52.7    38    3.6   252      8.3   828.3   43.64    1063    43.8   999.0
 120   11:50   52.4    37    4.0   253     16.8   828.3   43.64    1009    44.3   999.0
 120   12:00   53.1    40    3.6   268     15.9   828.2   43.64    1003    44.7   999.0
 120   12:10   53.5    37    3.3   251      9.8   828.1   43.60    1068    45.1   999.0
 120   12:20   52.7    37    4.4   270     12.5   828.1   43.60     795    45.5   999.0
 120   12:30   52.0    38    3.6   260     12.9   828.1   43.64     554    45.8   999.0
 120   12:40   51.4    42    3.2   260      8.8   827.9   43.64     606    46.1   999.0
 120   12:50   51.7    43    3.9   263      9.6   827.9   43.60     594    46.3   999.0
 120   13:00   51.6    45    3.8   241     10.2   827.8   43.60     674    46.4   999.0
 120   13:10   51.0    47    3.7   269     11.2   827.7   43.60     311    46.6   999.0
 120   13:20   51.1    50    2.7   252      9.2   827.7   43.64     548    46.7   999.0
 120   13:30   51.3    50    2.9   253     11.9   827.7   43.60     505    46.9   999.0
 120   13:40   50.6    53    3.7   250     10.1   827.6   43.60     413    47.0   999.0
 120   13:50   51.6    52    3.9   245     14.2   827.4   43.60     746    47.1   999.0
 120   14:00   50.6    52    4.5   243     17.0   827.5   43.60     203    47.2   999.0
 120   14:10   48.7    55    3.0   254      9.3   827.4   43.60     260    47.2   999.0
 120   14:20   49.0    53    3.4   276      9.9   827.4   43.60     210    47.3   999.0
 120   14:30   48.2    53    3.7   270     12.0   827.3   43.60     141    47.3   999.0
 120   14:40   47.8    55    4.0   264     12.1   827.1   43.60     185    47.3   999.0
 120   14:50   48.5    54    3.7   268     10.3   827.1   43.60     394    47.3   999.0
 120   15:00   49.6    52    3.6   287      9.2   826.9   43.60     570    47.3   999.0
 120   15:10   51.5    49    4.0   265      9.9   826.7   43.57     638    47.3   999.0
 120   15:20   50.6    49    4.2   259     12.6   826.6   43.60     440    47.3   999.0
 120   15:30   49.6    51    3.4   265      8.9   826.5   43.60     336    47.3   999.0
 120   15:40   49.2    50    3.5   260     11.0   826.4   43.60     293    47.3   999.0
 120   15:50   49.6    50    3.6   265     12.4   826.3   43.57     362    47.3   999.0
 120   16:00   48.8    52    3.6   262     13.2   826.4   43.60     263    47.2   999.0
 120   16:10   47.8    52    4.5   257     12.8   826.5   43.64     161    47.2   999.0
 120   16:20   47.6    53    4.3   255     11.7   826.6   43.60     356    47.2   999.0
 120   16:30   48.3    51    4.2   264     13.7   826.4   43.60     310    47.2   999.0

Return to Onion Creek graphs page.


Western Regional Climate Center,wrcc@dri.edu